Time;durP1;ratioP1;P1;durP2;ratioP2;P2;SDS_P1;SDS_P2;PMS_P1;PMS_P2;Temp;Humidity;BMP_temperature;BMP_pressure;BME280_temperature;BME280_humidity;BME280_pressure;Samples;Min_cycle;Max_cycle;Signal;HPM_P1;HPM_P2
2023/07/29 00:00:26;;;;;;;;;;;;;;;;;;;;;
2023/07/29 00:02:58;;;;;;;9.00;8.07;;;18.40;74.80;;;;;;4977870;28;20047;-95
2023/07/29 00:05:36;;;;;;;;;;;;;;;;;;;;;
2023/07/29 00:08:08;;;;;;;11.07;9.15;;;18.40;76.10;;;;;;4972612;28;20050;-96
2023/07/29 00:10:45;;;;;;;10.25;8.88;;;18.40;76.60;;;;;;4963044;28;20069;-95
2023/07/29 00:16:17;;;;;;;;;;;;;;;;;;;;;
2023/07/29 00:19:05;;;;;;;;;;;;;;;;;;;;;
2023/07/29 00:21:49;;;;;;;;;;;;;;;;;;;;;
2023/07/29 00:25:07;;;;;;;;;;;;;;;;;;;;;
2023/07/29 00:33:46;;;;;;;11.13;10.02;;;18.20;79.20;;;;;;4963293;28;20065;-94
2023/07/29 00:36:30;;;;;;;11.80;10.43;;;18.20;79.10;;;;;;4948162;28;20050;-93
2023/07/29 00:39:18;;;;;;;12.88;9.95;;;18.30;79.10;;;;;;4949275;28;20071;-95
2023/07/29 00:41:52;;;;;;;11.38;10.18;;;18.20;79.60;;;;;;4962991;28;20096;-96
2023/07/29 00:44:36;;;;;;;11.10;9.88;;;17.60;79.20;;;;;;4947191;28;20056;-93
2023/07/29 00:47:04;;;;;;;11.15;10.00;;;18.20;79.80;;;;;;4947072;28;20074;-95
2023/07/29 00:49:38;;;;;;;11.40;10.25;;;18.10;80.60;;;;;;4978139;28;20042;-96
2023/07/29 00:52:17;;;;;;;12.85;10.43;;;18.10;81.00;;;;;;4946365;28;20042;-96
2023/07/29 00:54:51;;;;;;;10.48;9.48;;;18.10;81.60;;;;;;4947984;28;20038;-96
2023/07/29 00:57:30;;;;;;;;;;;;;;;;;;;;;
2023/07/29 01:00:15;;;;;;;;;;;;;;;;;;;;;
2023/07/29 01:02:50;;;;;;;10.88;9.77;;;18.00;83.80;;;;;;4978448;28;20146;-96
2023/07/29 01:05:18;;;;;;;11.20;10.07;;;18.10;84.80;;;;;;4944351;28;20059;-95
2023/07/29 01:08:15;;;;;;;11.45;10.25;;;18.00;85.90;;;;;;4975301;28;20046;-95
2023/07/29 01:11:04;;;;;;;;;;;;;;;;;;;;;
2023/07/29 01:14:16;;;;;;;;;;;;;;;;;;;;;
2023/07/29 01:17:37;;;;;;;;;;;;;;;;;;;;;
2023/07/29 01:23:23;;;;;;;10.93;9.57;;;17.90;87.20;;;;;;4994415;28;20058;-96
2023/07/29 01:26:01;;;;;;;12.07;8.82;;;17.70;87.10;;;;;;4946642;28;20120;-96
2023/07/29 01:28:45;;;;;;;;;;;;;;;;;;;;;
2023/07/29 01:31:42;;;;;;;;;;;;;;;;;;;;;
2023/07/29 01:34:45;;;;;;;9.82;8.65;;;17.80;88.50;;;;;;4978493;28;20516;-96
2023/07/29 01:37:40;;;;;;;;;;;;;;;;;;;;;
2023/07/29 01:40:42;;;;;;;9.90;8.32;;;17.70;88.00;;;;;;4978144;28;20058;-95
2023/07/29 01:43:33;;;;;;;13.23;8.93;;;17.70;87.80;;;;;;4961572;28;20062;-96
2023/07/29 01:46:06;;;;;;;10.65;8.20;;;17.60;88.60;;;;;;4962437;28;20054;-96
2023/07/29 01:48:44;;;;;;;;;;;;;;;;;;;;;
2023/07/29 01:51:23;;;;;;;8.43;7.63;;;17.60;89.60;;;;;;4977368;28;20054;-96
2023/07/29 01:54:01;;;;;;;;;;;;;;;;;;;;;
2023/07/29 01:56:37;;;;;;;10.63;8.85;;;17.50;89.80;;;;;;4962175;28;20122;-96
2023/07/29 01:59:06;;;;;;;10.77;8.48;;;17.40;90.00;;;;;;4944682;28;20074;-95
2023/07/29 02:01:39;;;;;;;9.73;8.00;;;18.00;90.60;;;;;;4960470;28;20532;-95
2023/07/29 02:04:19;;;;;;;9.52;8.05;;;17.40;90.70;;;;;;4945737;28;20057;-96
2023/07/29 02:06:47;;;;;;;10.32;8.65;;;17.50;90.70;;;;;;4946691;28;20090;-96
2023/07/29 02:09:35;;;;;;;9.20;8.15;;;17.40;91.00;;;;;;4944467;28;20053;-95
2023/07/29 02:12:11;;;;;;;9.52;7.82;;;17.30;91.40;;;;;;4946697;28;20057;-95
2023/07/29 02:14:53;;;;;;;8.98;8.07;;;17.40;91.50;;;;;;4946006;28;20053;-95
2023/07/29 02:17:22;;;;;;;8.93;8.02;;;17.50;91.70;;;;;;4947105;28;20054;-95
2023/07/29 02:19:50;;;;;;;8.63;7.63;;;17.40;92.00;;;;;;4976543;28;20122;-95
2023/07/29 02:22:52;;;;;;;;;;;;;;;;;;;;;
2023/07/29 02:25:42;;;;;;;8.35;7.55;;;17.50;92.00;;;;;;4967185;28;20058;-96
2023/07/29 02:28:33;;;;;;;10.13;8.32;;;17.40;92.50;;;;;;4951008;28;20046;-96
2023/07/29 02:31:34;;;;;;;8.93;7.00;;;17.50;92.20;;;;;;4966755;28;20050;-96
2023/07/29 02:34:08;;;;;;;8.98;7.53;;;16.70;91.80;;;;;;4948757;28;20050;-94
2023/07/29 02:36:42;;;;;;;8.93;7.65;;;16.60;91.60;;;;;;4954665;28;20077;-92
2023/07/29 02:39:33;;;;;;;7.95;6.97;;;17.30;91.70;;;;;;4964976;28;20054;-96
2023/07/29 02:42:13;;;;;;;;;;;;;;;;;;;;;
2023/07/29 02:44:44;;;;;;;8.23;6.50;;;17.30;91.30;;;;;;4976578;28;20497;-95
2023/07/29 02:47:30;;;;;;;7.72;6.63;;;17.30;91.40;;;;;;4941502;28;20125;-95
2023/07/29 02:50:16;;;;;;;9.53;7.47;;;16.60;91.30;;;;;;4927279;28;20050;-94
2023/07/29 02:52:53;;;;;;;7.07;6.40;;;17.30;91.60;;;;;;4971638;28;20046;-95
2023/07/29 02:55:27;;;;;;;6.97;6.38;;;17.30;91.90;;;;;;4945190;28;20539;-95
2023/07/29 02:58:21;;;;;;;9.43;7.50;;;17.30;91.80;;;;;;4943027;28;20042;-96
2023/07/29 03:01:25;;;;;;;10.70;7.47;;;17.30;91.80;;;;;;4947108;28;20046;-95
2023/07/29 03:04:12;;;;;;;7.35;6.63;;;17.30;91.70;;;;;;4961105;28;20054;-95
2023/07/29 03:06:43;;;;;;;;;;;17.30;91.80;;;;;;4944815;28;20038;-96
2023/07/29 03:09:22;;;;;;;7.00;6.15;;;17.30;93.60;;;;;;4960112;28;19925;-96
2023/07/29 03:11:59;;;;;;;10.23;6.32;;;17.20;92.20;;;;;;4960265;28;20133;-96
2023/07/29 03:14:32;;;;;;;8.07;6.63;;;17.00;92.40;;;;;;4941330;28;20051;-95
2023/07/29 03:20:14;;;;;;;7.35;6.65;;;17.20;93.00;;;;;;4964287;28;20121;-96
2023/07/29 03:22:46;;;;;;;8.15;6.60;;;17.20;92.80;;;;;;4940971;28;20059;-94
2023/07/29 03:25:20;;;;;;;8.80;6.78;;;17.20;92.80;;;;;;4941788;28;20053;-96
2023/07/29 03:28:18;;;;;;;8.23;6.38;;;17.10;92.90;;;;;;4946490;29;20059;-95
2023/07/29 03:31:20;;;;;;;;;;;;;;;;;;;;;
2023/07/29 03:33:51;;;;;;;5.72;5.13;;;17.20;92.40;;;;;;4948329;28;20535;-96
2023/07/29 03:36:25;;;;;;;8.77;5.75;;;17.30;92.10;;;;;;4937291;29;20055;-96
2023/07/29 03:39:04;;;;;;;5.88;5.30;;;17.20;92.00;;;;;;4937486;29;20051;-96
2023/07/29 03:41:40;;;;;;;6.13;4.93;;;17.20;91.70;;;;;;4922574;29;20106;-96
2023/07/29 03:44:19;;;;;;;6.72;5.28;;;17.10;91.30;;;;;;4922789;29;20055;-96
2023/07/29 03:46:58;;;;;;;8.68;6.13;;;17.10;91.40;;;;;;4954353;29;20116;-96
2023/07/29 03:49:28;;;;;;;7.03;5.22;;;17.10;90.90;;;;;;4923049;29;20058;-94
2023/07/29 03:52:19;;;;;;;5.93;5.05;;;17.10;90.90;;;;;;4929363;29;20047;-95
2023/07/29 03:54:57;;;;;;;6.90;5.55;;;17.00;90.70;;;;;;4939627;28;20086;-95
2023/07/29 03:57:52;;;;;;;10.30;5.28;;;17.00;91.00;;;;;;4926516;28;20114;-95
2023/07/29 04:00:37;;;;;;;8.27;5.55;;;17.00;90.90;;;;;;4924922;28;20489;-95
2023/07/29 04:03:07;;;;;;;5.47;4.53;;;17.10;90.80;;;;;;4922503;29;20047;-95
2023/07/29 04:05:51;;;;;;;6.78;4.88;;;16.90;91.00;;;;;;4942190;28;20061;-95
2023/07/29 04:08:27;;;;;;;6.45;4.88;;;16.90;90.90;;;;;;4940783;28;20045;-95
2023/07/29 04:10:56;;;;;;;6.88;5.20;;;16.90;90.90;;;;;;4925295;28;20093;-95
2023/07/29 04:13:29;;;;;;;11.10;5.40;;;17.00;90.90;;;;;;4941753;28;20055;-95
2023/07/29 04:16:03;;;;;;;6.35;5.72;;;16.40;90.80;;;;;;4928376;28;20070;-96
2023/07/29 04:18:56;;;;;;;6.30;5.70;;;16.90;90.60;;;;;;4925067;29;20057;-96
2023/07/29 04:21:28;;;;;;;6.80;6.00;;;16.90;90.50;;;;;;4946275;28;20050;-94
2023/07/29 04:24:05;;;;;;;6.75;5.47;;;16.90;90.80;;;;;;4960402;28;20122;-95
2023/07/29 04:26:46;;;;;;;;;;;;;;;;;;;;;
2023/07/29 04:29:20;;;;;;;6.63;5.30;;;16.80;91.20;;;;;;4945334;28;20465;-95
2023/07/29 04:32:03;;;;;;;9.15;5.68;;;16.90;91.30;;;;;;4932688;28;20130;-94
2023/07/29 04:34:28;;;;;;;6.43;5.57;;;16.80;91.50;;;;;;4942573;28;20054;-96
2023/07/29 04:37:10;;;;;;;;;;;;;;;;;;;;;
2023/07/29 04:39:59;;;;;;;6.82;5.97;;;16.80;91.90;;;;;;4959578;28;20051;-95
2023/07/29 04:42:38;;;;;;;8.25;5.00;;;16.80;92.50;;;;;;4955896;29;20498;-95
2023/07/29 04:48:04;;;;;;;7.37;5.37;;;16.80;92.70;;;;;;4959517;28;20050;-93
2023/07/29 04:53:31;;;;;;;6.50;5.10;;;16.90;92.70;;;;;;4945405;28;20086;-95
2023/07/29 04:56:11;;;;;;;6.10;5.03;;;16.80;92.70;;;;;;4927978;28;20071;-96
2023/07/29 04:58:42;;;;;;;5.35;4.85;;;16.80;92.70;;;;;;4928466;28;20043;-95
2023/07/29 05:01:11;;;;;;;5.85;5.28;;;16.80;92.70;;;;;;4942217;28;20050;-95
2023/07/29 05:03:42;;;;;;;7.43;4.72;;;16.80;92.70;;;;;;4943958;28;20509;-95
2023/07/29 05:06:08;;;;;;;7.35;5.22;;;16.80;92.50;;;;;;4927497;28;20042;-95
2023/07/29 05:08:37;;;;;;;7.70;4.75;;;17.00;92.40;;;;;;4943335;28;20383;-95
2023/07/29 05:11:03;;;;;;;7.40;4.20;;;16.90;92.50;;;;;;4943150;28;20482;-96
2023/07/29 05:13:37;;;;;;;6.22;4.95;;;16.90;92.60;;;;;;4942572;28;20085;-96
2023/07/29 05:16:26;;;;;;;8.70;4.57;;;16.90;92.50;;;;;;4941894;28;20138;-96
2023/07/29 05:18:56;;;;;;;5.28;4.40;;;16.20;92.40;;;;;;4943743;28;20477;-95
2023/07/29 05:21:43;;;;;;;6.30;4.32;;;16.80;92.80;;;;;;4928011;28;20050;-95
2023/07/29 05:24:36;;;;;;;;;;;;;;;;;;;;;
2023/07/29 05:30:11;;;;;;;5.75;3.30;;;16.80;92.90;;;;;;4932163;29;20059;-96
2023/07/29 05:32:55;;;;;;;5.65;3.65;;;16.30;92.30;;;;;;4942231;28;20382;-95
2023/07/29 05:35:23;;;;;;;6.30;4.40;;;16.70;92.70;;;;;;4943209;28;20043;-96
2023/07/29 05:37:56;;;;;;;6.63;3.83;;;17.10;93.00;;;;;;4943482;28;20039;-95
2023/07/29 05:40:35;;;;;;;;;;;;;;;;;;;;;
2023/07/29 05:43:14;;;;;;;6.25;3.42;;;16.70;92.50;;;;;;4945120;28;20062;-95
2023/07/29 05:45:57;;;;;;;;;;;;;;;;;;;;;
2023/07/29 05:48:30;;;;;;;4.43;3.38;;;16.70;92.50;;;;;;4958227;28;20532;-96
2023/07/29 05:51:34;;;;;;;5.53;4.13;;;17.20;92.90;;;;;;4894477;29;20051;-96
2023/07/29 05:54:57;;;;;;;4.45;3.03;;;16.80;93.50;;;;;;4933935;28;20517;-96
2023/07/29 05:57:54;;;;;;;;;;;;;;;;;;;;;
2023/07/29 06:00:49;;;;;;;3.15;2.88;;;16.80;93.10;;;;;;4944361;28;20043;-96
2023/07/29 06:03:35;;;;;;;6.95;3.33;;;16.80;93.00;;;;;;4943583;28;20133;-96
2023/07/29 06:09:48;;;;;;;3.63;3.33;;;16.80;93.30;;;;;;4930917;28;20057;-96
2023/07/29 06:12:18;;;;;;;4.68;3.65;;;16.90;93.60;;;;;;4928645;28;20058;-96
2023/07/29 06:15:19;;;;;;;4.25;3.85;;;16.90;93.60;;;;;;4924178;29;20051;-96
2023/07/29 06:18:16;;;;;;;5.15;3.70;;;16.90;94.30;;;;;;4941670;29;20051;-96
2023/07/29 06:20:53;;;;;;;6.20;4.13;;;16.90;94.20;;;;;;4945201;28;20489;-88
2023/07/29 06:23:19;;;;;;;15.32;4.30;;;17.00;94.10;;;;;;4957948;28;20517;-88
2023/07/29 06:25:45;;;;;;;5.70;3.47;;;17.00;94.00;;;;;;4968183;28;20101;-92
2023/07/29 06:28:10;;;;;;;9.55;4.03;;;17.00;94.20;;;;;;4967706;28;20047;-90
2023/07/29 06:30:36;;;;;;;6.85;4.53;;;17.10;94.30;;;;;;4975860;28;20064;-92
2023/07/29 06:33:03;;;;;;;6.97;4.18;;;17.10;94.20;;;;;;4971972;28;20061;-91
2023/07/29 06:35:28;;;;;;;;;;;17.20;94.00;;;;;;4956652;28;20118;-92
2023/07/29 06:37:54;;;;;;;7.30;4.68;;;17.50;99.50;;;;;;4964272;28;20009;-93
2023/07/29 06:40:20;;;;;;;8.93;4.45;;;17.60;93.70;;;;;;4959489;28;20088;-91
2023/07/29 06:42:49;;;;;;;9.38;4.22;;;17.80;92.80;;;;;;4941219;28;20054;-90
2023/07/29 06:45:15;;;;;;;5.97;3.85;;;17.80;91.80;;;;;;4957952;28;20089;-92
2023/07/29 06:47:41;;;;;;;;;;;17.90;91.00;;;;;;4943094;28;20058;-93
2023/07/29 06:50:14;;;;;;;7.53;3.63;;;17.90;90.50;;;;;;4977137;28;19933;-91
2023/07/29 06:52:40;;;;;;;9.00;5.30;;;17.90;90.20;;;;;;4973890;28;20129;-91
2023/07/29 06:55:09;;;;;;;4.60;3.78;;;17.80;90.70;;;;;;4972751;28;20126;-91
2023/07/29 06:57:35;;;;;;;9.10;4.30;;;17.90;90.80;;;;;;4944193;28;20061;-89
2023/07/29 07:00:02;;;;;;;7.78;4.22;;;17.80;91.20;;;;;;4989734;28;20038;-89
2023/07/29 07:02:28;;;;;;;7.65;4.15;;;17.90;91.30;;;;;;4959548;28;20120;-87
2023/07/29 07:04:53;;;;;;;7.10;4.57;;;18.00;91.30;;;;;;4975576;28;20126;-87
2023/07/29 07:07:19;;;;;;;10.13;5.10;;;18.00;90.90;;;;;;4993190;28;20492;-87
2023/07/29 07:09:45;;;;;;;7.80;4.63;;;18.00;91.30;;;;;;4992426;28;20181;-89
2023/07/29 07:12:11;;;;;;;9.90;5.30;;;18.00;92.00;;;;;;4975683;28;20053;-89
2023/07/29 07:14:37;;;;;;;11.30;5.53;;;18.00;91.50;;;;;;4960282;28;20136;-89
2023/07/29 07:17:03;;;;;;;;;;;18.00;90.90;;;;;;4991702;28;20121;-89
2023/07/29 07:19:28;;;;;;;8.70;6.22;;;18.00;91.90;;;;;;4975698;28;20016;-90
2023/07/29 07:21:54;;;;;;;12.60;7.25;;;18.10;90.60;;;;;;4966212;28;20081;-89
2023/07/29 07:24:20;;;;;;;12.07;6.65;;;18.00;90.60;;;;;;4975284;28;20105;-89
2023/07/29 07:26:46;;;;;;;9.23;6.68;;;18.10;91.00;;;;;;4975314;28;20050;-89
2023/07/29 07:29:18;;;;;;;9.90;6.65;;;18.10;91.50;;;;;;4959690;28;20046;-92
2023/07/29 07:31:55;;;;;;;8.98;6.60;;;18.30;90.50;;;;;;4991388;28;20493;-90
2023/07/29 07:34:21;;;;;;;8.63;6.97;;;18.30;87.80;;;;;;4996691;28;20077;-89
2023/07/29 07:36:47;;;;;;;;;;;18.30;86.10;;;;;;4961080;28;20106;-90
2023/07/29 07:39:15;;;;;;;11.60;6.65;;;18.30;87.10;;;;;;4964527;28;19922;-92
2023/07/29 07:41:42;;;;;;;8.85;7.03;;;18.30;84.70;;;;;;4975866;28;20054;-93
2023/07/29 07:44:13;;;;;;;;;;;18.30;83.20;;;;;;4976168;28;20057;-91
2023/07/29 07:46:49;;;;;;;7.43;6.60;;;18.10;85.40;;;;;;4958335;28;19965;-92
2023/07/29 07:49:18;;;;;;;8.75;6.05;;;18.50;84.60;;;;;;4978790;28;20035;-93
2023/07/29 07:51:48;;;;;;;8.95;6.22;;;18.60;83.90;;;;;;4963599;28;20042;-91
2023/07/29 07:54:17;;;;;;;8.52;6.00;;;18.60;80.50;;;;;;4977944;28;20056;-93
2023/07/29 07:56:43;;;;;;;8.25;6.35;;;18.60;80.60;;;;;;4963229;28;20523;-91
2023/07/29 07:59:09;;;;;;;7.35;6.63;;;18.60;79.90;;;;;;4963588;28;20047;-90
2023/07/29 08:01:39;;;;;;;7.63;6.43;;;18.70;79.40;;;;;;4979161;28;20050;-90
2023/07/29 08:04:10;;;;;;;8.02;6.25;;;17.80;78.20;;;;;;4979568;28;20049;-91
2023/07/29 08:06:39;;;;;;;9.20;6.90;;;18.70;76.30;;;;;;4979055;28;20189;-90
2023/07/29 08:09:07;;;;;;;10.88;6.47;;;18.70;73.60;;;;;;4943840;28;20039;-91
2023/07/29 08:11:33;;;;;;;16.95;8.23;;;18.70;72.00;;;;;;4959614;28;20386;-90
2023/07/29 08:14:01;;;;;;;8.60;6.45;;;18.70;72.80;;;;;;4959474;28;20046;-92
2023/07/29 08:16:30;;;;;;;9.65;6.75;;;18.10;73.00;;;;;;4959570;28;20051;-90
2023/07/29 08:18:56;;;;;;;8.02;6.25;;;18.90;74.80;;;;;;4959823;28;20066;-90
2023/07/29 08:21:26;;;;;;;9.55;6.50;;;19.00;73.20;;;;;;4968575;28;20050;-91
2023/07/29 08:23:54;;;;;;;7.07;6.18;;;19.00;72.90;;;;;;4979349;28;20133;-92
2023/07/29 08:26:23;;;;;;;10.75;6.47;;;19.00;70.40;;;;;;4978366;28;20188;-93
2023/07/29 08:28:52;;;;;;;8.60;5.75;;;19.00;72.20;;;;;;4961024;28;20054;-91
2023/07/29 08:31:18;;;;;;;6.78;6.10;;;19.10;70.00;;;;;;4979105;28;20405;-93
2023/07/29 08:33:44;;;;;;;9.10;6.45;;;19.10;68.00;;;;;;4962388;28;20058;-91
2023/07/29 08:36:11;;;;;;;7.72;5.93;;;18.20;66.20;;;;;;4978969;28;20548;-91
2023/07/29 08:38:37;;;;;;;9.60;5.75;;;18.70;66.20;;;;;;4981822;28;20048;-89
2023/07/29 08:41:22;;;;;;;8.15;6.40;;;19.30;65.20;;;;;;4962671;28;20046;-89
2023/07/29 08:44:01;;;;;;;8.65;5.65;;;19.40;62.80;;;;;;4962583;28;20058;-91
2023/07/29 08:46:28;;;;;;;5.97;5.30;;;19.40;55.60;;;;;;4978156;28;20392;-91
2023/07/29 08:49:02;;;;;;;7.70;4.93;;;19.50;56.20;;;;;;4978064;28;20042;-91
2023/07/29 08:51:29;;;;;;;5.68;4.50;;;19.60;55.00;;;;;;4978409;28;20085;-90
2023/07/29 08:53:55;;;;;;;7.57;4.70;;;18.70;51.00;;;;;;4978509;28;20049;-92
2023/07/29 08:56:32;;;;;;;8.98;4.50;;;19.60;49.80;;;;;;4974169;28;20050;-88
2023/07/29 08:59:00;;;;;;;5.72;4.18;;;19.50;48.10;;;;;;4960044;28;20474;-89
2023/07/29 09:01:26;;;;;;;5.65;4.50;;;19.40;49.40;;;;;;4958532;28;20080;-91
2023/07/29 09:03:52;;;;;;;8.38;4.35;;;19.40;50.10;;;;;;4993278;28;20559;-95
2023/07/29 09:06:21;;;;;;;9.05;4.35;;;19.30;48.40;;;;;;4962106;28;20129;-89
2023/07/29 09:08:51;;;;;;;7.72;3.75;;;19.20;43.80;;;;;;4979223;28;20054;-96
2023/07/29 09:11:23;;;;;;;6.38;3.40;;;19.80;39.60;;;;;;4946336;28;20046;-92
2023/07/29 09:13:58;;;;;;;6.78;3.55;;;19.40;38.20;;;;;;4963148;28;20054;-93
2023/07/29 09:16:44;;;;;;;3.78;2.60;;;18.80;41.90;;;;;;4961353;28;20057;-94
2023/07/29 09:19:21;;;;;;;4.25;3.08;;;19.60;46.30;;;;;;4950864;28;20058;-96
2023/07/29 09:21:47;;;;;;;6.13;3.63;;;19.10;43.30;;;;;;4967797;28;20053;-92
2023/07/29 09:24:17;;;;;;;5.05;3.53;;;20.10;39.60;;;;;;4949876;28;20049;-94
2023/07/29 09:26:53;;;;;;;4.10;3.03;;;20.20;33.00;;;;;;4973169;28;20058;-96
2023/07/29 09:29:27;;;;;;;7.93;4.07;;;20.30;20.50;;;;;;4977930;28;20054;-94
2023/07/29 09:32:23;;;;;;;6.65;3.58;;;20.40;21.80;;;;;;4977068;28;20309;-91
2023/07/29 09:34:49;;;;;;;13.60;4.13;;;20.50;18.50;;;;;;4977264;28;20307;-94
2023/07/29 09:37:20;;;;;;;4.22;3.08;;;20.90;21.60;;;;;;4975598;28;20052;-93
2023/07/29 09:39:47;;;;;;;4.13;2.50;;;20.50;21.30;;;;;;4976706;28;20073;-96
2023/07/29 09:42:21;;;;;;;3.30;2.85;;;20.20;16.10;;;;;;4978227;28;20061;-92
2023/07/29 09:44:50;;;;;;;3.50;2.65;;;20.60;17.90;;;;;;4984174;28;20097;-93
2023/07/29 09:47:25;;;;;;;6.07;2.83;;;20.80;15.10;;;;;;4995259;28;20100;-93
2023/07/29 09:49:55;;;;;;;6.32;4.20;;;20.90;1.00;;;;;;4988633;28;20034;-94
2023/07/29 09:52:23;;;;;;;5.00;3.35;;;21.00;4.90;;;;;;4944647;28;20042;-91
2023/07/29 09:54:49;;;;;;;5.00;3.40;;;21.00;3.60;;;;;;4976810;28;20509;-93
2023/07/29 09:57:21;;;;;;;6.20;3.67;;;21.00;1.00;;;;;;4959327;28;20046;-93
2023/07/29 10:00:10;;;;;;;4.78;4.05;;;21.00;1.00;;;;;;4961391;28;20050;-95
2023/07/29 10:02:42;;;;;;;4.57;3.63;;;21.00;1.00;;;;;;4984623;28;20393;-95
2023/07/29 10:05:11;;;;;;;4.25;3.47;;;21.00;1.00;;;;;;4979769;28;20113;-91
2023/07/29 10:07:38;;;;;;;7.35;3.72;;;21.00;2.90;;;;;;4961471;28;20050;-92
2023/07/29 10:10:06;;;;;;;5.47;3.33;;;21.10;1.00;;;;;;4986835;28;20481;-95
2023/07/29 10:12:56;;;;;;;6.15;3.38;;;21.30;1.00;;;;;;4983928;28;20054;-95
2023/07/29 10:15:43;;;;;;;5.63;2.60;;;21.40;1.00;;;;;;4968279;28;20050;-95
2023/07/29 10:18:11;;;;;;;6.32;2.92;;;21.40;1.00;;;;;;4976439;28;20046;-94
2023/07/29 10:20:38;;;;;;;5.18;2.80;;;21.40;1.00;;;;;;4981884;28;20053;-92
2023/07/29 10:23:08;;;;;;;3.08;2.50;;;21.50;1.00;;;;;;4947632;28;20053;-92
2023/07/29 10:25:46;;;;;;;7.25;2.63;;;21.50;1.00;;;;;;4975864;28;20068;-91
2023/07/29 10:28:24;;;;;;;5.18;2.75;;;21.40;1.00;;;;;;4960043;28;20129;-90
2023/07/29 10:30:54;;;;;;;3.33;2.20;;;20.60;1.00;;;;;;4975887;28;20043;-90
2023/07/29 10:33:22;;;;;;;6.95;2.85;;;21.60;1.00;;;;;;4974133;28;20042;-91
2023/07/29 10:35:52;;;;;;;4.63;2.63;;;21.80;1.00;;;;;;4960074;28;20073;-91
2023/07/29 10:38:23;;;;;;;3.20;2.20;;;21.80;1.00;;;;;;4976740;28;20101;-91
2023/07/29 10:40:58;;;;;;;4.43;2.13;;;21.70;1.00;;;;;;4975196;28;20053;-88
2023/07/29 10:43:26;;;;;;;4.13;2.00;;;21.70;1.00;;;;;;4975684;28;20046;-91
2023/07/29 10:46:18;;;;;;;4.82;2.05;;;21.70;1.00;;;;;;4958791;28;20058;-91
2023/07/29 10:48:51;;;;;;;4.22;2.30;;;21.10;1.00;;;;;;4962346;28;20088;-93
2023/07/29 10:51:26;;;;;;;2.55;1.90;;;21.40;1.00;;;;;;4976878;28;20057;-93
2023/07/29 10:54:03;;;;;;;4.38;2.53;;;21.20;1.00;;;;;;4960454;28;20078;-93
2023/07/29 10:56:46;;;;;;;;;;;;;;;;;;;;;
2023/07/29 10:59:12;;;;;;;7.03;3.08;;;20.90;1.00;;;;;;4976394;28;20051;-93
2023/07/29 11:01:55;;;;;;;4.72;3.20;;;20.70;14.50;;;;;;4975411;28;20559;-92
2023/07/29 11:04:23;;;;;;;5.85;3.35;;;20.50;26.20;;;;;;4947399;28;20105;-91
2023/07/29 11:07:15;;;;;;;5.47;3.60;;;20.30;33.80;;;;;;4980118;28;20069;-91
2023/07/29 11:09:51;;;;;;;3.70;2.90;;;20.10;41.90;;;;;;4980340;28;20392;-94
2023/07/29 11:13:01;;;;;;;5.72;3.00;;;20.00;43.00;;;;;;4996973;28;20046;-91
2023/07/29 11:15:28;;;;;;;2.80;2.50;;;19.80;42.90;;;;;;4962009;28;20039;-92
2023/07/29 11:18:15;;;;;;;5.15;2.42;;;19.70;49.50;;;;;;4981761;28;20432;-94
2023/07/29 11:20:45;;;;;;;7.03;3.63;;;20.00;55.50;;;;;;4966878;28;20054;-92
2023/07/29 11:23:14;;;;;;;2.40;2.00;;;19.40;53.60;;;;;;4963105;28;20043;-93
2023/07/29 11:25:46;;;;;;;2.42;1.90;;;19.40;52.80;;;;;;4951794;28;20053;-95
2023/07/29 11:28:23;;;;;;;3.78;1.75;;;19.30;56.90;;;;;;4965775;28;20138;-93
2023/07/29 11:31:12;;;;;;;4.43;2.15;;;19.30;58.70;;;;;;4985589;28;20061;-94
2023/07/29 11:33:51;;;;;;;3.50;3.03;;;18.30;62.20;;;;;;4987247;28;20126;-95
2023/07/29 11:36:25;;;;;;;3.45;2.20;;;19.50;61.70;;;;;;4985613;28;20101;-95
2023/07/29 11:38:56;;;;;;;4.47;2.72;;;19.50;62.70;;;;;;4966221;28;20078;-94
2023/07/29 11:44:31;;;;;;;;;;;;;;;;;;;;;
2023/07/29 11:47:01;;;;;;;4.20;2.78;;;20.20;70.10;;;;;;4968197;28;20057;-95
2023/07/29 11:49:30;;;;;;;5.97;2.60;;;19.40;61.40;;;;;;4948337;28;20061;-94
2023/07/29 11:51:59;;;;;;;5.13;2.67;;;20.30;58.20;;;;;;4948959;28;20053;-90
2023/07/29 11:55:08;;;;;;;;;;;;;;;;;;;;;
2023/07/29 12:01:50;;;;;;;;;;;20.10;53.70;;;;;;4958634;29;20042;-94
2023/07/29 12:14:18;;;;;;;3.55;2.30;;;20.40;52.40;;;;;;4979483;28;20389;-92
2023/07/29 12:17:06;;;;;;;4.35;2.55;;;20.60;47.40;;;;;;4980980;28;20054;-94
2023/07/29 12:19:38;;;;;;;6.43;3.20;;;20.70;41.20;;;;;;4955979;28;20078;-88
2023/07/29 12:22:13;;;;;;;5.22;2.47;;;20.80;36.60;;;;;;4959547;28;20078;-91
2023/07/29 12:25:02;;;;;;;;;;;;;;;;;;;;;
2023/07/29 12:28:24;;;;;;;5.90;3.08;;;21.10;18.10;;;;;;4978154;28;20058;-96
2023/07/29 12:34:12;;;;;;;6.65;2.95;;;21.50;1.00;;;;;;6022501;23;20042;-95
2023/07/29 12:37:31;;;;;;;5.18;2.42;;;21.50;1.00;;;;;;4973875;28;20150;-96
2023/07/29 12:40:35;;;;;;;4.82;2.75;;;20.90;1.00;;;;;;4969913;28;20369;-96
2023/07/29 12:43:19;;;;;;;4.80;2.50;;;20.60;1.00;;;;;;4961228;29;20054;-94
2023/07/29 12:45:58;;;;;;;4.75;2.63;;;21.30;1.00;;;;;;4932602;28;20169;-94
2023/07/29 12:48:31;;;;;;;8.45;3.10;;;20.60;1.00;;;;;;4963394;28;20043;-93
2023/07/29 12:51:08;;;;;;;8.60;2.75;;;21.20;1.00;;;;;;4944837;28;20046;-90
2023/07/29 12:53:34;;;;;;;4.65;2.20;;;21.40;1.00;;;;;;4945532;28;20043;-93
2023/07/29 12:56:01;;;;;;;5.63;2.90;;;21.50;1.00;;;;;;4925326;28;21107;-91
2023/07/29 12:58:27;;;;;;;5.75;2.78;;;21.50;1.00;;;;;;4957146;28;20054;-94
2023/07/29 15:38:53;;;;;;;;;;;;;;;;;;;;;
2023/07/29 15:42:21;;;;;;;;;;;;;;;;;;;;;
2023/07/29 16:04:06;;;;;;;;;;;;;;;;;;;;;
2023/07/29 16:06:41;;;;;;;;;;;;;;;;;;;;;
2023/07/29 16:10:06;;;;;;;2.30;0.80;;;22.20;99.90;;;;;;6118034;23;20454;-93
2023/07/29 16:20:30;;;;;;;1.40;1.00;;;21.30;99.90;;;;;;6106836;23;20425;-92
2023/07/29 16:22:59;;;;;;;0.70;0.68;;;22.20;99.90;;;;;;6134258;23;20013;-93
2023/07/29 16:25:24;;;;;;;2.10;0.70;;;22.30;99.90;;;;;;6158870;23;20024;-89
2023/07/29 16:27:51;;;;;;;2.60;1.00;;;22.30;99.90;;;;;;6184589;23;20021;-92
2023/07/29 16:30:22;;;;;;;2.97;1.13;;;22.30;99.90;;;;;;6159665;23;20036;-95
2023/07/29 16:32:51;;;;;;;1.05;0.80;;;22.50;99.90;;;;;;6135928;23;20017;-89
2023/07/29 16:35:17;;;;;;;1.33;0.88;;;22.30;99.90;;;;;;6183444;23;20021;-94
2023/07/29 16:37:46;;;;;;;1.55;0.73;;;22.40;99.90;;;;;;6132570;23;20025;-91
2023/07/29 16:40:24;;;;;;;2.08;0.90;;;22.40;99.90;;;;;;6159737;23;20072;-91
2023/07/29 16:42:52;;;;;;;3.72;1.00;;;21.30;99.90;;;;;;6158162;23;20017;-91
2023/07/29 16:45:30;;;;;;;0.93;0.80;;;22.20;99.90;;;;;;6159335;23;20059;-92
2023/07/29 16:48:01;;;;;;;0.80;0.80;;;22.10;99.90;;;;;;6183131;23;20453;-91
2023/07/29 16:50:34;;;;;;;3.72;1.48;;;21.90;99.90;;;;;;6161356;23;20073;-93
2023/07/29 16:53:03;;;;;;;3.05;1.92;;;21.90;99.90;;;;;;6182133;23;20027;-93
2023/07/29 16:55:31;;;;;;;4.28;2.05;;;21.80;99.90;;;;;;6157384;23;20020;-90
2023/07/29 16:58:06;;;;;;;9.25;6.90;;;21.90;99.90;;;;;;6159855;23;20481;-91
2023/07/29 17:00:39;;;;;;;7.90;5.10;;;21.80;99.90;;;;;;6133444;23;20020;-90
2023/07/29 17:03:10;;;;;;;2.90;2.33;;;21.80;99.90;;;;;;6134768;23;20083;-89
2023/07/29 17:06:32;;;;;;;6.07;3.85;;;21.80;99.90;;;;;;6157079;23;20024;-95
2023/07/29 17:08:58;;;;;;;4.22;1.60;;;20.70;99.90;;;;;;6139357;23;20035;-92
2023/07/29 17:11:26;;;;;;;6.13;3.88;;;21.40;99.90;;;;;;6158256;23;20430;-93
2023/07/29 17:13:56;;;;;;;1.42;0.90;;;21.40;99.90;;;;;;6181827;23;20032;-91
2023/07/29 17:16:22;;;;;;;1.48;1.38;;;21.10;99.90;;;;;;6158930;23;20052;-91
2023/07/29 17:18:52;;;;;;;1.52;1.02;;;21.30;99.90;;;;;;6161357;23;20095;-92
2023/07/29 17:21:21;;;;;;;2.15;1.23;;;21.30;99.90;;;;;;6162666;23;20017;-91
2023/07/29 17:23:49;;;;;;;1.58;1.48;;;21.30;99.90;;;;;;6162489;23;20020;-94
2023/07/29 17:26:18;;;;;;;2.05;1.27;;;20.50;99.90;;;;;;6163763;23;20342;-91
2023/07/29 17:28:53;;;;;;;;;;;;;;;;;;;;;
2023/07/29 17:31:22;;;;;;;3.80;2.63;;;21.20;99.90;;;;;;6186631;23;20184;-91
2023/07/29 17:33:48;;;;;;;8.88;4.20;;;21.20;99.90;;;;;;6138366;23;20028;-91
2023/07/29 17:36:13;;;;;;;1.65;1.50;;;21.10;99.90;;;;;;6162661;23;20016;-92
2023/07/29 17:39:09;;;;;;;3.10;1.52;;;21.00;99.90;;;;;;6165015;23;20016;-92
2023/07/29 17:41:41;;;;;;;3.08;1.60;;;21.00;99.90;;;;;;6137838;23;20020;-92
2023/07/29 17:44:07;;;;;;;2.15;1.50;;;21.00;1.00;;;;;;6186151;23;20110;-91
2023/07/29 17:46:38;;;;;;;4.55;1.48;;;21.00;1.00;;;;;;6164548;23;20020;-92
2023/07/29 17:49:09;;;;;;;2.03;1.33;;;20.00;1.00;;;;;;6161959;23;20441;-92
2023/07/29 17:52:22;;;;;;;;;;;;;;;;;;;;;
2023/07/29 17:54:48;;;;;;;1.70;1.20;;;20.30;1.00;;;;;;6166988;23;20501;-91
2023/07/29 17:57:17;;;;;;;1.60;1.50;;;20.90;1.00;;;;;;6188575;23;20055;-90
2023/07/29 17:59:46;;;;;;;1.60;1.30;;;20.90;1.00;;;;;;6163777;23;20024;-91
2023/07/29 18:02:11;;;;;;;2.17;1.38;;;20.90;1.00;;;;;;6189518;23;20071;-92
2023/07/29 18:04:47;;;;;;;;;;;;;;;;;;;;;
2023/07/29 18:07:16;;;;;;;1.40;1.30;;;20.80;1.00;;;;;;6163680;23;20740;-90
2023/07/29 18:09:42;;;;;;;1.83;1.50;;;20.90;1.00;;;;;;6161818;23;20060;-91
2023/07/29 18:12:08;;;;;;;2.25;1.00;;;20.80;1.00;;;;;;6187046;23;20333;-91